createdAt,value
2023-03-21T00:00:50.564Z,99650.81
2023-03-21T00:03:18.634Z,99655.09
2023-03-21T00:05:50.001Z,99648.19
2023-03-21T00:08:18.340Z,99646.28
2023-03-21T00:10:46.384Z,99640.41
2023-03-21T00:13:15.226Z,99645.53
2023-03-21T00:16:03.469Z,99626.16
2023-03-21T00:18:42.125Z,99614.78
2023-03-21T00:24:02.203Z,99617.06
2023-03-21T00:26:30.305Z,99627.38
2023-03-21T00:28:58.601Z,99560.13
2023-03-21T00:31:26.655Z,99610.25
2023-03-21T00:33:56.068Z,99591.13
2023-03-21T00:36:25.847Z,99583.75
2023-03-21T00:38:53.998Z,99602.22
2023-03-21T00:41:39.180Z,99581.63
2023-03-21T00:44:08.929Z,99593.75
2023-03-21T00:46:45.550Z,99579.28
2023-03-21T00:49:20.361Z,99600.13
2023-03-21T00:51:52.002Z,99589.66
2023-03-21T00:54:20.289Z,99588.56
2023-03-21T00:56:48.225Z,99589.66
2023-03-21T00:59:16.718Z,99578.34
2023-03-21T01:01:46.851Z,99569.88
2023-03-21T01:04:17.037Z,99581.22
2023-03-21T01:06:46.545Z,99565.63
2023-03-21T01:09:17.123Z,99568.50
2023-03-21T01:11:45.653Z,99556.50
2023-03-21T01:14:22.527Z,99569.22
2023-03-21T01:16:51.741Z,99565.28
2023-03-21T01:19:27.586Z,99555.66
2023-03-21T01:22:00.503Z,99547.13
2023-03-21T01:24:28.575Z,99552.25
2023-03-21T01:26:56.629Z,99557.34
2023-03-21T01:29:24.601Z,99558.25
2023-03-21T01:31:52.788Z,99555.06
2023-03-21T01:34:20.799Z,99554.44
2023-03-21T01:36:48.842Z,99553.22
2023-03-21T01:39:18.200Z,99544.63
2023-03-21T01:41:46.297Z,99536.00
2023-03-21T01:44:17.611Z,99544.63
2023-03-21T01:46:54.522Z,99531.91
2023-03-21T01:49:34.416Z,99531.16
2023-03-21T01:52:12.235Z,99526.59
2023-03-21T01:54:45.577Z,99521.38
2023-03-21T01:57:17.923Z,99520.53
2023-03-21T01:59:50.215Z,99514.97
2023-03-21T02:02:23.296Z,99507.53
2023-03-21T02:04:56.232Z,99506.53
2023-03-21T02:07:28.870Z,99503.50
2023-03-21T02:09:59.891Z,99477.25
2023-03-21T02:12:28.541Z,99499.84
2023-03-21T02:14:57.056Z,99508.56
2023-03-21T02:17:34.869Z,99512.81
2023-03-21T02:20:32.755Z,99514.13
2023-03-21T02:23:33.604Z,99506.41
2023-03-21T02:26:48.223Z,99504.03
2023-03-21T02:29:39.555Z,99499.81
2023-03-21T02:32:31.282Z,99506.91
2023-03-21T02:35:39.109Z,99494.00
2023-03-21T02:38:16.900Z,99514.19
2023-03-21T02:40:51.220Z,99482.38
2023-03-21T02:43:25.672Z,99524.06
2023-03-21T02:45:58.390Z,99513.84
2023-03-21T02:48:38.399Z,99527.19
2023-03-21T02:51:17.174Z,99523.03
2023-03-21T02:54:12.990Z,99529.25
2023-03-21T02:56:43.193Z,99524.56
2023-03-21T02:59:11.922Z,99524.78
2023-03-21T03:01:39.969Z,99526.19
2023-03-21T03:04:19.476Z,99527.84
2023-03-21T03:07:10.673Z,99514.72
2023-03-21T03:09:55.737Z,99532.94
2023-03-21T03:12:33.219Z,99535.25
2023-03-21T03:15:11.676Z,99531.34
2023-03-21T03:17:52.029Z,99534.91
2023-03-21T03:20:32.154Z,99541.91
2023-03-21T03:23:09.679Z,99516.66
2023-03-21T03:25:46.228Z,99508.50
2023-03-21T03:28:17.612Z,99549.47
2023-03-21T03:31:01.176Z,99547.38
2023-03-21T03:33:38.107Z,99531.78
2023-03-21T03:36:10.898Z,99540.91
2023-03-21T03:38:40.341Z,99541.66
2023-03-21T03:41:15.493Z,99549.53
2023-03-21T03:43:48.638Z,99544.13
2023-03-21T03:46:23.797Z,99418.09
2023-03-21T03:48:56.304Z,99528.69
2023-03-21T03:51:28.874Z,99494.31
2023-03-21T03:53:59.845Z,99534.34
2023-03-21T03:56:30.197Z,99528.31
2023-03-21T03:58:58.704Z,99520.97
2023-03-21T04:01:26.901Z,99525.31
2023-03-21T04:04:10.437Z,99482.16
2023-03-21T04:06:41.546Z,99526.75
2023-03-21T04:09:20.480Z,99530.50
2023-03-21T04:11:51.490Z,99527.19
2023-03-21T04:14:19.381Z,99535.69
2023-03-21T04:16:47.811Z,99535.50
2023-03-21T04:19:15.983Z,99530.56
2023-03-21T04:21:44.135Z,99531.66
2023-03-21T04:24:13.941Z,99539.09
2023-03-21T04:26:42.372Z,99536.50
2023-03-21T04:29:11.796Z,99549.16
2023-03-21T04:31:41.740Z,99546.09
2023-03-21T04:34:12.688Z,99544.06
2023-03-21T04:36:44.649Z,99537.31
2023-03-21T04:39:15.554Z,99543.16
2023-03-21T04:41:45.436Z,99540.63
2023-03-21T04:44:16.039Z,99537.63
2023-03-21T04:46:44.425Z,99525.63
2023-03-21T04:49:12.449Z,99546.13
2023-03-21T04:51:40.559Z,99560.84
2023-03-21T04:56:36.493Z,99565.78
2023-03-21T04:59:08.875Z,99556.41
2023-03-21T05:01:38.470Z,99556.50
2023-03-21T05:04:06.947Z,99565.44
2023-03-21T05:06:35.138Z,99560.41
2023-03-21T05:09:05.748Z,99568.94
2023-03-21T05:11:36.040Z,99549.78
2023-03-21T05:14:04.029Z,99559.81
2023-03-21T05:16:32.200Z,99566.25
2023-03-21T05:19:04.271Z,99544.72
2023-03-21T05:21:34.251Z,99569.16
2023-03-21T05:24:03.947Z,99575.75
2023-03-21T05:26:31.867Z,99562.88
2023-03-21T05:28:59.820Z,99560.66
2023-03-21T05:31:27.810Z,99558.44
2023-03-21T05:33:55.701Z,99525.94
2023-03-21T05:36:25.200Z,99550.44
2023-03-21T05:38:53.226Z,99549.44
2023-03-21T05:41:21.540Z,99554.16
2023-03-21T05:43:49.575Z,99554.63
2023-03-21T05:46:17.644Z,99552.03
2023-03-21T05:48:45.740Z,99559.38
2023-03-21T05:51:13.964Z,99548.09
2023-03-21T05:53:43.458Z,99552.94
2023-03-21T05:56:11.959Z,99565.78
2023-03-21T05:58:39.996Z,99568.16
2023-03-21T06:01:09.552Z,99565.41
2023-03-21T06:03:37.718Z,99567.06
2023-03-21T06:06:06.902Z,99567.41
2023-03-21T06:08:36.403Z,99564.25
2023-03-21T06:11:06.310Z,99563.84
2023-03-21T06:13:34.487Z,99556.63
2023-03-21T06:16:02.619Z,99558.31
2023-03-21T06:18:30.629Z,99561.38
2023-03-21T06:20:58.936Z,99568.50
2023-03-21T06:23:27.168Z,99565.78
2023-03-21T06:25:55.095Z,99565.66
2023-03-21T06:28:24.463Z,99563.75
2023-03-21T06:30:53.451Z,99565.28
2023-03-21T06:33:21.441Z,99564.34
2023-03-21T06:35:54.036Z,99566.59
2023-03-21T06:38:22.516Z,99570.16
2023-03-21T06:40:51.444Z,99570.06
2023-03-21T06:43:19.789Z,99571.09
2023-03-21T06:45:49.310Z,99568.72
2023-03-21T06:48:17.498Z,99575.09
2023-03-21T06:50:45.476Z,99569.72
2023-03-21T06:53:13.385Z,99571.44
2023-03-21T06:55:41.403Z,99570.75
2023-03-21T06:58:09.897Z,99563.59
2023-03-21T07:00:38.527Z,99577.94
2023-03-21T07:03:08.045Z,99584.06
2023-03-21T07:05:37.909Z,99563.72
2023-03-21T07:08:10.242Z,99588.63
2023-03-21T07:10:40.397Z,99583.84
2023-03-21T07:13:08.560Z,99570.75
2023-03-21T07:15:38.456Z,99576.03
2023-03-21T07:18:09.433Z,99563.47
2023-03-21T07:20:39.171Z,99577.13
2023-03-21T07:23:07.312Z,99555.63
2023-03-21T07:25:36.122Z,99566.84
2023-03-21T07:28:06.451Z,99578.22
2023-03-21T07:30:34.423Z,99574.28
2023-03-21T07:33:02.351Z,99573.72
2023-03-21T07:35:31.830Z,99567.25
2023-03-21T07:37:59.847Z,99571.53
2023-03-21T07:40:27.836Z,99573.09
2023-03-21T07:42:56.015Z,99572.66
2023-03-21T07:45:25.470Z,99573.63
2023-03-21T07:47:53.675Z,99552.50
2023-03-21T07:50:22.151Z,99565.78
2023-03-21T07:52:51.518Z,99565.88
2023-03-21T07:55:19.670Z,99562.13
2023-03-21T07:57:51.648Z,99544.94
2023-03-21T08:00:23.198Z,99559.19
2023-03-21T08:02:57.845Z,99551.94
2023-03-21T08:05:31.361Z,99562.66
2023-03-21T08:08:01.812Z,99536.91
2023-03-21T08:10:30.010Z,99540.31
2023-03-21T08:12:58.166Z,99549.47
2023-03-21T08:15:26.036Z,99531.50
2023-03-21T08:17:54.335Z,99552.53
2023-03-21T08:20:23.760Z,99556.88
2023-03-21T08:22:52.069Z,99549.53
2023-03-21T08:25:22.859Z,99552.75
2023-03-21T08:27:52.102Z,99553.00
2023-03-21T08:30:21.759Z,99543.31
2023-03-21T08:32:50.553Z,99545.19
2023-03-21T08:35:20.529Z,99554.22
2023-03-21T08:38:01.299Z,99554.91
2023-03-21T08:40:33.434Z,99553.16
2023-03-21T08:43:02.246Z,99545.59
2023-03-21T08:45:32.034Z,99546.09
2023-03-21T08:48:00.629Z,99540.91
2023-03-21T08:50:31.954Z,99529.72
2023-03-21T08:52:59.909Z,99543.34
2023-03-21T08:55:28.014Z,99541.00
2023-03-21T08:57:58.237Z,99535.19
2023-03-21T09:00:27.497Z,99532.44
2023-03-21T09:02:56.110Z,99542.28
2023-03-21T09:05:25.897Z,99545.22
2023-03-21T09:07:54.274Z,99538.97
2023-03-21T09:10:24.093Z,99534.28
2023-03-21T09:12:54.300Z,99511.50
2023-03-21T09:15:25.030Z,99524.84
2023-03-21T09:17:54.320Z,99532.81
2023-03-21T09:20:26.329Z,99513.63
2023-03-21T09:22:55.998Z,99529.88
2023-03-21T09:25:24.708Z,99521.13
2023-03-21T09:27:53.866Z,99524.03
2023-03-21T09:30:26.093Z,99525.84
2023-03-21T09:32:55.963Z,99525.16
2023-03-21T09:35:24.901Z,99519.16
2023-03-21T09:37:52.936Z,99520.78
2023-03-21T09:40:30.745Z,99515.97
2023-03-21T09:43:09.558Z,99441.72
2023-03-21T09:45:45.819Z,99486.22
2023-03-21T09:48:22.597Z,99512.75
2023-03-21T09:50:51.145Z,99495.28
2023-03-21T09:53:25.097Z,99502.88
2023-03-21T09:55:54.184Z,99507.00
2023-03-21T09:58:27.729Z,99494.41
2023-03-21T10:01:02.609Z,99502.19
2023-03-21T10:03:35.033Z,99498.97
2023-03-21T10:06:09.184Z,99492.97
2023-03-21T10:08:41.532Z,99482.41
2023-03-21T10:11:17.069Z,99487.53
2023-03-21T10:13:50.487Z,99473.16
2023-03-21T10:16:27.814Z,99492.56
2023-03-21T10:18:56.852Z,99493.69
2023-03-21T10:21:56.415Z,99480.22
2023-03-21T10:24:19.784Z,99485.22
2023-03-21T10:26:49.073Z,99453.69
2023-03-21T10:29:22.618Z,99481.13
2023-03-21T10:31:53.926Z,99450.91
2023-03-21T10:34:32.506Z,99481.09
2023-03-21T10:37:02.092Z,99469.63
2023-03-21T10:39:34.869Z,99466.16
2023-03-21T10:42:03.112Z,99464.28
2023-03-21T10:44:32.678Z,99463.94
2023-03-21T10:47:06.841Z,99460.59
2023-03-21T10:49:40.670Z,99457.97
2023-03-21T10:52:14.879Z,99444.28
2023-03-21T10:54:42.944Z,99416.44
2023-03-21T10:57:14.301Z,99408.34
2023-03-21T10:59:47.217Z,99434.41
2023-03-21T11:02:21.020Z,99418.56
2023-03-21T11:04:50.260Z,99428.13
2023-03-21T11:07:19.307Z,99421.56
2023-03-21T11:09:52.502Z,99423.31
2023-03-21T11:12:31.148Z,99414.31
2023-03-21T11:14:59.072Z,99404.41
2023-03-21T11:17:30.437Z,99392.97
2023-03-21T11:20:00.317Z,99387.38
2023-03-21T11:22:31.499Z,99289.25
2023-03-21T11:25:01.858Z,99380.63
2023-03-21T11:27:31.839Z,99376.00
2023-03-21T11:30:02.179Z,99379.59
2023-03-21T11:32:36.178Z,99347.63
2023-03-21T11:35:08.004Z,99378.91
2023-03-21T11:37:40.909Z,99374.78
2023-03-21T11:40:21.521Z,99363.31
2023-03-21T11:42:53.261Z,99374.34
2023-03-21T11:45:24.028Z,99361.66
2023-03-21T11:47:56.838Z,99359.84
2023-03-21T11:50:32.747Z,99337.66
2023-03-21T11:53:21.664Z,99333.47
2023-03-21T11:56:10.657Z,99342.09
2023-03-21T11:58:53.878Z,99315.66
2023-03-21T12:01:29.102Z,99334.03
2023-03-21T12:04:05.188Z,99340.16
2023-03-21T12:06:37.599Z,99345.41
2023-03-21T12:09:25.309Z,99334.56
2023-03-21T12:12:02.935Z,99338.84
2023-03-21T12:14:41.696Z,99331.34
2023-03-21T12:17:25.472Z,99322.00
2023-03-21T12:20:25.974Z,99311.97
2023-03-21T12:23:08.107Z,99320.53
2023-03-21T12:25:43.388Z,99318.66
2023-03-21T12:28:32.462Z,99308.44
2023-03-21T12:31:10.875Z,99307.78
2023-03-21T12:33:54.252Z,99287.97
2023-03-21T12:36:37.459Z,99297.53
2023-03-21T12:39:20.528Z,99295.50
2023-03-21T12:42:00.544Z,99290.00
2023-03-21T12:44:35.110Z,99285.81
2023-03-21T12:47:06.813Z,99275.16
2023-03-21T12:49:39.715Z,99258.38
2023-03-21T12:52:12.867Z,99274.75
2023-03-21T12:54:46.228Z,99280.47
2023-03-21T12:57:20.153Z,99276.31
2023-03-21T12:59:55.665Z,99288.31
2023-03-21T13:02:30.208Z,99285.41
2023-03-21T13:05:04.771Z,99280.38
2023-03-21T13:07:37.164Z,99279.63
2023-03-21T13:10:16.113Z,99279.47
2023-03-21T13:12:56.303Z,99276.09
2023-03-21T13:15:38.981Z,99267.63
2023-03-21T13:18:16.876Z,99269.13
2023-03-21T13:20:48.633Z,99253.88
2023-03-21T13:23:18.501Z,99234.25
2023-03-21T13:25:49.700Z,99270.31
2023-03-21T13:28:22.179Z,99261.59
2023-03-21T13:30:51.716Z,99263.28
2023-03-21T13:33:26.003Z,99253.38
2023-03-21T13:36:05.344Z,99248.44
2023-03-21T13:38:35.303Z,99220.84
2023-03-21T13:41:09.191Z,99244.78
2023-03-21T13:43:44.192Z,99238.03
2023-03-21T13:46:13.899Z,99225.50
2023-03-21T13:49:00.451Z,99209.97
2023-03-21T13:51:44.697Z,99230.78
2023-03-21T13:54:21.886Z,99233.38
2023-03-21T13:56:54.244Z,99233.16
2023-03-21T13:59:39.143Z,99225.22
2023-03-21T14:02:28.694Z,99220.47
2023-03-21T14:05:06.281Z,99206.91
2023-03-21T14:07:37.600Z,99211.47
2023-03-21T14:10:09.912Z,99211.19
2023-03-21T14:12:42.140Z,99206.53
2023-03-21T14:15:19.058Z,99210.00
2023-03-21T14:17:55.803Z,99170.94
2023-03-21T14:20:26.807Z,99212.81
2023-03-21T14:22:55.023Z,99209.00
2023-03-21T14:25:29.195Z,99209.16
2023-03-21T14:28:04.160Z,99201.94
2023-03-21T14:30:35.750Z,99212.16
2023-03-21T14:33:08.781Z,99209.84
2023-03-21T14:35:37.265Z,99199.47
2023-03-21T14:38:07.506Z,99202.94
2023-03-21T14:40:36.081Z,99201.25
2023-03-21T14:43:07.800Z,99200.09
2023-03-21T14:45:37.777Z,99197.75
2023-03-21T14:48:08.584Z,99189.72
2023-03-21T14:50:42.007Z,99183.78
2023-03-21T14:53:15.573Z,99202.72
2023-03-21T14:55:45.744Z,99178.88
2023-03-21T14:58:19.179Z,99192.56
2023-03-21T15:00:50.815Z,99185.78
2023-03-21T15:03:21.137Z,99182.34
2023-03-21T15:05:49.472Z,99187.59
2023-03-21T15:08:19.435Z,99191.72
2023-03-21T15:11:06.251Z,99193.84
2023-03-21T15:13:38.996Z,99195.03
2023-03-21T15:16:08.480Z,99203.69
2023-03-21T15:18:39.598Z,99209.88
2023-03-21T15:21:12.010Z,99213.31
2023-03-21T15:23:43.772Z,99205.28
2023-03-21T15:26:16.856Z,99197.06
2023-03-21T15:28:48.790Z,99198.44
2023-03-21T15:31:19.314Z,99204.25
2023-03-21T15:33:49.089Z,99163.81
2023-03-21T15:36:20.989Z,99202.13
2023-03-21T15:38:49.857Z,99215.09
2023-03-21T15:41:28.142Z,99200.28
2023-03-21T15:44:06.536Z,99210.97
2023-03-21T15:46:41.264Z,99222.53
2023-03-21T15:49:20.433Z,99197.78
2023-03-21T15:51:52.121Z,99221.03
2023-03-21T15:54:25.146Z,99218.09
2023-03-21T15:56:55.953Z,99196.34
2023-03-21T15:59:29.101Z,99210.19
2023-03-21T16:01:57.283Z,99205.63
2023-03-21T16:04:26.700Z,99209.38
2023-03-21T16:07:00.200Z,99207.41
2023-03-21T16:09:28.374Z,99210.88
2023-03-21T16:11:58.759Z,99205.91
2023-03-21T16:14:28.922Z,99210.22
2023-03-21T16:16:59.199Z,99207.41
2023-03-21T16:19:29.621Z,99212.34
2023-03-21T16:21:57.581Z,99217.09
2023-03-21T16:24:25.499Z,99190.63
2023-03-21T16:26:53.479Z,99214.50
2023-03-21T16:29:22.580Z,99221.75
2023-03-21T16:31:51.926Z,99222.88
2023-03-21T16:34:19.873Z,99187.47
2023-03-21T16:36:48.087Z,99226.84
2023-03-21T16:39:19.336Z,99230.78
2023-03-21T16:41:47.798Z,99218.28
2023-03-21T16:44:16.267Z,99224.84
2023-03-21T16:46:44.353Z,99218.47
2023-03-21T16:49:20.457Z,99226.03
2023-03-21T16:51:48.307Z,99213.84
2023-03-21T16:54:16.261Z,99199.66
2023-03-21T16:56:47.895Z,99211.31
2023-03-21T16:59:16.342Z,99208.69
2023-03-21T17:01:46.173Z,99210.31
2023-03-21T17:04:14.874Z,99196.78
2023-03-21T17:06:46.232Z,99204.22
2023-03-21T17:09:16.082Z,99207.97
2023-03-21T17:11:45.049Z,99180.66
2023-03-21T17:14:16.274Z,99213.28
2023-03-21T17:16:44.261Z,99218.91
2023-03-21T17:19:15.014Z,99226.31
2023-03-21T17:21:44.604Z,99196.66
2023-03-21T17:24:12.929Z,99191.53
2023-03-21T17:26:41.042Z,99209.00
2023-03-21T17:29:09.167Z,99224.09
2023-03-21T17:31:38.687Z,99219.81
2023-03-21T17:34:06.651Z,99231.47
2023-03-21T17:36:36.622Z,99199.00
2023-03-21T17:39:08.741Z,99230.13
2023-03-21T17:41:36.952Z,99222.69
2023-03-21T17:44:07.803Z,99222.66
2023-03-21T17:46:37.684Z,99219.38
2023-03-21T17:49:06.484Z,99218.47
2023-03-21T17:51:34.813Z,99208.22
2023-03-21T17:54:03.195Z,99209.63
2023-03-21T17:56:34.044Z,99214.16
2023-03-21T17:59:04.938Z,99221.31
2023-03-21T18:01:33.524Z,99217.72
2023-03-21T18:04:05.226Z,99216.84
2023-03-21T18:06:34.835Z,99224.16
2023-03-21T18:09:07.802Z,99198.78
2023-03-21T18:11:37.163Z,99224.81
2023-03-21T18:14:15.941Z,99212.66
2023-03-21T18:16:45.116Z,99224.06
2023-03-21T18:19:13.910Z,99226.94
2023-03-21T18:21:45.314Z,99231.28
2023-03-21T18:24:14.065Z,99230.50
2023-03-21T18:26:43.582Z,99240.28
2023-03-21T18:32:07.041Z,99255.00
2023-03-21T18:34:36.224Z,99257.59
2023-03-21T18:37:04.543Z,99255.13
2023-03-21T18:39:33.175Z,99247.19
2023-03-21T18:42:04.498Z,99240.56
2023-03-21T18:44:37.331Z,99251.16
2023-03-21T18:47:06.600Z,99263.50
2023-03-21T18:50:05.957Z,99260.91
2023-03-21T18:52:23.090Z,99258.38
2023-03-21T18:54:51.030Z,99266.69
2023-03-21T18:57:35.728Z,99266.38
2023-03-21T19:00:10.354Z,99258.53
2023-03-21T19:02:43.141Z,99269.16
2023-03-21T19:05:16.218Z,99262.53
2023-03-21T19:07:44.333Z,99273.84
2023-03-21T19:10:18.006Z,99276.41
2023-03-21T19:12:49.256Z,99285.94
2023-03-21T19:15:19.783Z,99284.44
2023-03-21T19:20:36.448Z,99286.75
2023-03-21T19:23:06.146Z,99285.13
2023-03-21T19:25:34.141Z,99275.22
2023-03-21T19:28:03.961Z,99268.38
2023-03-21T19:30:31.894Z,99269.22
2023-03-21T19:32:59.839Z,99277.22
2023-03-21T19:35:28.814Z,99288.72
2023-03-21T19:37:56.965Z,99292.38
2023-03-21T19:40:24.838Z,99296.28
2023-03-21T19:42:52.994Z,99308.25
2023-03-21T19:45:22.265Z,99315.16
2023-03-21T19:47:51.158Z,99317.63
2023-03-21T19:53:07.385Z,99319.13
2023-03-21T19:55:36.435Z,99316.78
2023-03-21T19:58:06.126Z,99320.81
2023-03-21T20:00:36.460Z,99318.75
2023-03-21T20:03:08.625Z,99303.41
2023-03-21T20:05:36.626Z,99309.91
2023-03-21T20:08:07.856Z,99308.97
2023-03-21T20:10:38.702Z,99317.00
2023-03-21T20:13:06.749Z,99312.81
2023-03-21T20:15:45.932Z,99307.31
2023-03-21T20:18:15.800Z,99282.53
2023-03-21T20:20:43.866Z,99312.97
2023-03-21T20:23:11.841Z,99310.88
2023-03-21T20:25:43.809Z,99321.88
2023-03-21T20:28:17.132Z,99310.28
2023-03-21T20:30:54.100Z,99315.06
2023-03-21T20:33:22.248Z,99315.16
2023-03-21T20:38:39.380Z,99294.56
2023-03-21T20:41:07.899Z,99307.19
2023-03-21T20:44:20.800Z,99305.25
2023-03-21T20:46:25.566Z,99306.91
2023-03-21T20:48:53.525Z,99312.28
2023-03-21T20:54:11.211Z,99312.63
2023-03-21T20:56:39.291Z,99311.34
2023-03-21T20:59:17.778Z,99305.25
2023-03-21T21:01:54.349Z,99307.75
2023-03-21T21:04:23.069Z,99313.13
2023-03-21T21:06:55.325Z,99310.09
2023-03-21T21:09:23.359Z,99315.22
2023-03-21T21:12:08.385Z,99310.97
2023-03-21T21:14:37.478Z,99317.72
2023-03-21T21:17:26.717Z,99324.50
2023-03-21T21:19:55.791Z,99319.38
2023-03-21T21:22:23.814Z,99322.34
2023-03-21T21:24:51.942Z,99328.44
2023-03-21T21:27:20.003Z,99334.50
2023-03-21T21:29:50.068Z,99338.94
2023-03-21T21:32:19.691Z,99334.47
2023-03-21T21:34:49.416Z,99325.47
2023-03-21T21:37:17.432Z,99327.41
2023-03-21T21:39:45.684Z,99333.63
2023-03-21T21:42:13.658Z,99331.53
2023-03-21T21:44:44.241Z,99320.06
2023-03-21T21:47:12.344Z,99323.81
2023-03-21T21:49:42.380Z,99324.41
2023-03-21T21:52:13.346Z,99324.00
2023-03-21T21:54:45.577Z,99308.06
2023-03-21T21:57:14.688Z,99330.09
2023-03-21T21:59:42.693Z,99327.38
2023-03-21T22:02:13.890Z,99329.72
2023-03-21T22:04:43.310Z,99323.50
2023-03-21T22:07:14.536Z,99325.47
2023-03-21T22:09:42.844Z,99327.72
2023-03-21T22:12:10.720Z,99335.13
2023-03-21T22:14:38.661Z,99313.03
2023-03-21T22:17:07.302Z,99323.22
2023-03-21T22:19:35.302Z,99322.97
2023-03-21T22:22:04.837Z,99322.25
2023-03-21T22:24:32.939Z,99322.88
2023-03-21T22:27:00.992Z,99304.13
2023-03-21T22:29:30.056Z,99311.03
2023-03-21T22:31:58.145Z,99312.56
2023-03-21T22:34:27.529Z,99317.69
2023-03-21T22:36:57.106Z,99313.13
2023-03-21T22:39:27.290Z,99324.72
2023-03-21T22:41:57.895Z,99323.75
2023-03-21T22:44:25.969Z,99324.59
2023-03-21T22:46:54.143Z,99320.75
2023-03-21T22:49:22.106Z,99319.38
2023-03-21T22:51:50.015Z,99236.09
2023-03-21T22:54:17.909Z,99321.97
2023-03-21T22:56:47.316Z,99321.16
2023-03-21T22:59:15.547Z,99320.75
2023-03-21T23:01:44.217Z,99326.41
2023-03-21T23:04:12.219Z,99311.94
2023-03-21T23:06:40.857Z,99332.88
2023-03-21T23:09:09.590Z,99328.47
2023-03-21T23:11:37.721Z,99337.16
2023-03-21T23:14:08.937Z,99330.81
2023-03-21T23:16:38.389Z,99335.47
2023-03-21T23:19:07.790Z,99331.19
2023-03-21T23:21:36.745Z,99330.91
2023-03-21T23:24:05.025Z,99332.94
2023-03-21T23:26:33.395Z,99280.50
2023-03-21T23:29:01.317Z,99323.47
2023-03-21T23:31:32.931Z,99318.34
2023-03-21T23:34:01.473Z,99309.28
2023-03-21T23:36:30.120Z,99318.09
2023-03-21T23:38:58.174Z,99319.19
2023-03-21T23:41:26.857Z,99313.88
2023-03-21T23:43:55.071Z,99315.81
2023-03-21T23:46:23.079Z,99310.25
2023-03-21T23:48:52.387Z,99310.00
2023-03-21T23:51:23.144Z,99312.91
2023-03-21T23:53:51.539Z,99310.44
2023-03-21T23:56:21.958Z,99315.56
2023-03-21T23:58:51.332Z,99286.69
